createdAt,value
2019-04-23T00:00:20.479Z,2.27
2019-04-23T00:03:13.977Z,2.45
2019-04-23T00:10:53.950Z,2.45
2019-04-23T00:13:09.058Z,1.97
2019-04-23T00:16:03.015Z,2.00
2019-04-23T00:21:05.832Z,4.53
2019-04-23T00:23:35.240Z,6.08
2019-04-23T00:26:12.847Z,10.95
2019-04-23T00:28:41.543Z,12.40
2019-04-23T00:33:57.500Z,10.40
2019-04-23T00:36:19.887Z,10.33
2019-04-23T00:38:46.939Z,9.73
2019-04-23T00:41:20.830Z,10.98
2019-04-23T00:43:51.166Z,18.00
2019-04-23T00:46:23.420Z,20.82
2019-04-23T00:48:59.178Z,18.10
2019-04-23T00:51:27.719Z,19.00
2019-04-23T00:53:51.447Z,21.45
2019-04-23T00:56:38.672Z,20.12
2019-04-23T00:58:56.456Z,18.02
2019-04-23T01:03:57.860Z,8.65
2019-04-23T01:06:47.655Z,15.73
2019-04-23T01:09:06.853Z,15.27
2019-04-23T01:14:01.044Z,11.85
2019-04-23T01:16:32.945Z,16.12
2019-04-23T01:19:20.649Z,13.58
2019-04-23T01:21:26.516Z,13.60
2019-04-23T01:24:14.147Z,13.22
2019-04-23T01:27:39.295Z,13.62
2019-04-23T01:29:58.498Z,13.22
2019-04-23T01:32:32.170Z,18.03
2019-04-23T01:35:06.591Z,10.45
2019-04-23T01:37:36.513Z,7.85
2019-04-23T01:40:07.810Z,5.95
2019-04-23T01:42:42.189Z,10.32
2019-04-23T01:45:13.265Z,6.12
2019-04-23T01:47:43.836Z,3.87
2019-04-23T01:52:48.235Z,10.32
2019-04-23T01:55:19.888Z,22.37
2019-04-23T01:57:51.334Z,23.63
2019-04-23T02:02:49.627Z,12.75
2019-04-23T02:05:23.206Z,15.93
2019-04-23T02:07:58.439Z,13.77
2019-04-23T02:10:29.533Z,11.80
2019-04-23T02:12:56.425Z,11.28
2019-04-23T02:15:26.510Z,11.93
2019-04-23T02:17:58.736Z,9.20
2019-04-23T02:20:29.306Z,13.98
2019-04-23T02:26:01.276Z,15.93
2019-04-23T02:50:57.392Z,2.33
2019-04-23T02:53:45.538Z,2.30
2019-04-23T02:58:54.389Z,2.52
2019-04-23T03:01:19.549Z,2.10
2019-04-23T03:03:42.753Z,2.10
2019-04-23T03:11:20.004Z,2.17
2019-04-23T03:16:29.443Z,2.40
2019-04-23T03:19:01.562Z,2.42
2019-04-23T03:21:42.598Z,2.05
2019-04-23T03:24:20.801Z,2.50
2019-04-23T03:27:15.182Z,2.33
2019-04-23T03:29:40.459Z,2.35
2019-04-23T03:37:23.519Z,2.52
2019-04-23T03:39:55.078Z,3.40
2019-04-23T03:44:47.857Z,3.70
2019-04-23T03:47:13.888Z,7.78
2019-04-23T03:57:18.221Z,3.70
2019-04-23T04:02:37.695Z,2.33
2019-04-23T04:07:30.782Z,2.52
2019-04-23T04:09:52.084Z,2.50
2019-04-23T04:17:35.236Z,3.65
2019-04-23T04:20:20.252Z,4.78
2019-04-23T04:22:37.804Z,6.55
2019-04-23T04:27:45.617Z,9.00
2019-04-23T04:30:10.782Z,12.95
2019-04-23T04:32:53.386Z,6.83
2019-04-23T04:42:59.026Z,5.97
2019-04-23T04:45:30.380Z,41.73
2019-04-23T04:47:44.714Z,34.90
2019-04-23T04:50:25.947Z,16.77
2019-04-23T04:55:28.362Z,3.10
2019-04-23T05:00:42.977Z,3.13
2019-04-23T05:06:01.328Z,2.62
2019-04-23T05:08:15.957Z,2.42
2019-04-23T05:13:32.023Z,2.33
2019-04-23T05:15:44.797Z,2.40
2019-04-23T05:18:39.923Z,2.70
2019-04-23T05:21:01.891Z,2.80
2019-04-23T05:23:43.057Z,2.37
2019-04-23T05:26:02.854Z,2.00
2019-04-23T05:28:40.993Z,2.08
2019-04-23T05:31:12.373Z,2.37
2019-04-23T05:33:45.167Z,2.40
2019-04-23T05:41:20.007Z,2.50
2019-04-23T05:43:46.475Z,2.72
2019-04-23T05:46:25.076Z,2.30
2019-04-23T05:48:58.034Z,2.55
2019-04-23T05:53:50.957Z,10.55
2019-04-23T05:56:24.289Z,8.40
2019-04-23T05:58:58.216Z,6.83
2019-04-23T06:01:51.169Z,3.20
2019-04-23T06:09:12.751Z,2.87
2019-04-23T06:14:13.459Z,2.90
2019-04-23T06:16:41.856Z,2.70
2019-04-23T06:19:15.791Z,2.67
2019-04-23T06:21:59.864Z,3.02
2019-04-23T06:24:24.925Z,2.92
2019-04-23T06:26:51.630Z,2.77
2019-04-23T06:29:28.591Z,2.25
2019-04-23T06:31:55.295Z,3.37
2019-04-23T06:36:57.477Z,2.52
2019-04-23T06:39:38.172Z,2.80
2019-04-23T06:42:00.454Z,2.37
2019-04-23T06:44:44.978Z,3.37
2019-04-23T06:47:16.771Z,3.08
2019-04-23T06:49:54.517Z,2.90
2019-04-23T06:54:56.571Z,3.15
2019-04-23T06:57:23.786Z,3.08
2019-04-23T07:02:25.894Z,3.00
2019-04-23T07:05:03.441Z,3.27
2019-04-23T07:09:58.018Z,2.80
2019-04-23T07:12:38.573Z,3.42
2019-04-23T07:20:07.128Z,3.47
2019-04-23T07:25:12.803Z,3.85
2019-04-23T07:27:43.083Z,3.33
2019-04-23T07:30:23.753Z,4.85
2019-04-23T07:32:52.981Z,3.17
2019-04-23T07:35:16.051Z,3.45
2019-04-23T07:38:08.286Z,3.10
2019-04-23T07:43:22.535Z,3.45
2019-04-23T07:46:20.260Z,4.12
2019-04-23T07:51:21.024Z,3.37
2019-04-23T07:54:01.293Z,3.65
2019-04-23T07:56:45.623Z,3.52
2019-04-23T08:01:32.128Z,3.95
2019-04-23T08:04:01.911Z,3.67
2019-04-23T08:06:41.310Z,3.87
2019-04-23T08:14:08.425Z,3.90
2019-04-23T08:16:36.833Z,4.83
2019-04-23T08:19:25.505Z,4.33
2019-04-23T08:21:58.193Z,4.12
2019-04-23T08:24:47.972Z,4.20
2019-04-23T08:27:18.314Z,4.37
2019-04-23T08:29:43.956Z,4.03
2019-04-23T08:32:19.600Z,3.90
2019-04-23T08:34:58.387Z,3.67
2019-04-23T08:37:38.006Z,3.60
2019-04-23T08:40:04.367Z,4.30
2019-04-23T08:42:49.620Z,3.95
2019-04-23T08:48:00.718Z,4.55
2019-04-23T08:50:35.540Z,3.90
2019-04-23T08:58:06.111Z,3.70
2019-04-23T09:00:49.866Z,3.50
2019-04-23T09:03:20.350Z,4.45
2019-04-23T09:08:25.279Z,4.05
2019-04-23T09:10:55.834Z,3.80
2019-04-23T09:15:58.255Z,4.67
2019-04-23T09:18:27.835Z,3.83
2019-04-23T09:21:05.431Z,4.00
2019-04-23T09:26:05.511Z,3.65
2019-04-23T09:31:45.734Z,3.42
2019-04-23T09:34:07.252Z,4.28
2019-04-23T09:36:45.319Z,4.15
2019-04-23T09:39:14.925Z,4.00
2019-04-23T09:41:37.273Z,4.12
2019-04-23T09:47:24.425Z,4.08
2019-04-23T09:49:46.766Z,3.92
2019-04-23T09:52:21.966Z,4.10
2019-04-23T09:54:57.749Z,4.00
2019-04-23T10:00:10.262Z,3.92
2019-04-23T10:02:24.879Z,4.83
2019-04-23T10:04:48.602Z,3.85
2019-04-23T10:07:17.963Z,4.40
2019-04-23T10:09:36.579Z,3.95
2019-04-23T10:12:07.335Z,4.08
2019-04-23T10:14:38.656Z,3.70
2019-04-23T10:17:10.257Z,3.85
2019-04-23T10:19:40.767Z,4.10
2019-04-23T10:22:11.467Z,4.20
2019-04-23T10:24:43.437Z,4.03
2019-04-23T10:27:14.755Z,3.75
2019-04-23T10:29:45.942Z,3.70
2019-04-23T10:32:17.572Z,4.07
2019-04-23T10:34:58.101Z,4.45
2019-04-23T10:37:31.870Z,4.12
2019-04-23T10:39:58.284Z,4.28
2019-04-23T10:42:24.694Z,3.83
2019-04-23T10:45:20.465Z,4.08
2019-04-23T10:51:17.377Z,4.35
2019-04-23T10:53:50.613Z,4.17
2019-04-23T10:56:36.167Z,3.90
2019-04-23T10:58:58.983Z,4.97
2019-04-23T11:01:31.564Z,4.22
2019-04-23T11:04:32.922Z,4.80
2019-04-23T11:06:50.343Z,4.25
2019-04-23T11:09:38.628Z,4.80
2019-04-23T11:11:52.415Z,4.10
2019-04-23T11:14:25.342Z,4.80
2019-04-23T11:19:39.969Z,4.22
2019-04-23T11:22:21.037Z,4.10
2019-04-23T11:35:08.749Z,4.15
2019-04-23T11:39:44.953Z,4.22
2019-04-23T11:44:49.072Z,4.60
2019-04-23T11:48:02.537Z,4.17
2019-04-23T11:50:01.493Z,4.22
2019-04-23T11:55:09.420Z,4.20
2019-04-23T12:00:05.552Z,4.12
2019-04-23T12:02:43.401Z,4.28
2019-04-23T12:05:32.086Z,4.40
2019-04-23T12:07:57.586Z,4.00
2019-04-23T12:10:44.473Z,4.15
2019-04-23T12:13:08.120Z,4.62
2019-04-23T12:15:41.750Z,4.35
2019-04-23T12:18:10.876Z,4.67
2019-04-23T12:23:23.988Z,4.53
2019-04-23T12:26:06.648Z,4.70
2019-04-23T12:28:26.395Z,4.55
2019-04-23T12:30:59.318Z,4.37
2019-04-23T12:33:28.072Z,4.55
2019-04-23T12:35:59.162Z,4.40
2019-04-23T12:38:26.987Z,4.50
2019-04-23T12:43:43.586Z,4.17
2019-04-23T12:45:59.511Z,4.03
2019-04-23T12:50:58.340Z,4.75
2019-04-23T12:56:12.907Z,5.37
2019-04-23T12:58:34.117Z,5.10
2019-04-23T13:01:13.492Z,4.12
2019-04-23T13:03:39.226Z,4.10
2019-04-23T13:06:17.039Z,4.78
2019-04-23T13:16:39.908Z,4.50
2019-04-23T13:18:58.142Z,3.77
2019-04-23T13:24:11.433Z,4.33
2019-04-23T13:26:42.282Z,4.35
2019-04-23T13:29:18.563Z,4.33
2019-04-23T13:31:41.365Z,4.45
2019-04-23T13:34:22.915Z,4.72
2019-04-23T13:36:53.942Z,4.78
2019-04-23T13:39:24.499Z,4.35
2019-04-23T13:41:52.590Z,4.97
2019-04-23T13:44:39.477Z,4.65
2019-04-23T13:47:10.590Z,4.33
2019-04-23T13:49:39.007Z,3.75
2019-04-23T14:02:24.019Z,3.95
2019-04-23T14:05:02.613Z,3.80
2019-04-23T14:07:38.415Z,4.50
2019-04-23T14:10:11.787Z,4.10
2019-04-23T14:13:01.892Z,4.30
2019-04-23T14:15:19.555Z,4.12
2019-04-23T14:17:59.976Z,4.78
2019-04-23T14:25:16.543Z,4.25
2019-04-23T14:27:56.582Z,4.20
2019-04-23T14:30:34.777Z,4.37
2019-04-23T14:33:02.780Z,4.28
2019-04-23T14:38:15.872Z,4.53
2019-04-23T14:40:47.117Z,4.30
2019-04-23T14:43:20.146Z,5.00
2019-04-23T14:45:59.725Z,4.67
2019-04-23T14:48:14.897Z,4.25
2019-04-23T14:50:54.778Z,4.08
2019-04-23T14:53:33.348Z,4.10
2019-04-23T14:58:31.079Z,4.67
2019-04-23T15:01:16.111Z,5.33
2019-04-23T15:03:44.436Z,5.40
2019-04-23T15:06:46.839Z,4.78
2019-04-23T15:16:22.385Z,4.72
2019-04-23T15:27:21.514Z,4.20
2019-04-23T15:28:43.761Z,3.80
2019-04-23T15:31:44.731Z,4.20
2019-04-23T15:34:18.982Z,4.10
2019-04-23T15:39:16.926Z,4.78
2019-04-23T15:41:49.595Z,4.78
2019-04-23T15:44:13.501Z,4.40
2019-04-23T15:46:49.351Z,4.50
2019-04-23T15:49:19.845Z,3.90
2019-04-23T15:54:25.398Z,3.87
2019-04-23T16:01:41.926Z,4.70
2019-04-23T16:04:06.070Z,4.75
2019-04-23T16:09:40.255Z,4.95
2019-04-23T16:12:04.752Z,4.70
2019-04-23T16:14:48.025Z,4.75
2019-04-23T16:17:20.943Z,4.92
2019-04-23T16:20:19.044Z,5.33
2019-04-23T16:22:38.284Z,4.65
2019-04-23T16:27:44.323Z,4.62
2019-04-23T16:30:40.871Z,4.50
2019-04-23T16:35:34.577Z,4.08
2019-04-23T16:38:12.814Z,4.87
2019-04-23T16:40:35.058Z,6.10
2019-04-23T16:48:24.034Z,5.53
2019-04-23T16:50:57.851Z,5.22
2019-04-23T16:56:01.571Z,5.80
2019-04-23T17:05:56.829Z,4.72
2019-04-23T17:08:42.767Z,4.45
2019-04-23T17:11:10.153Z,4.12
2019-04-23T17:13:34.584Z,4.53
2019-04-23T17:21:10.410Z,5.80
2019-04-23T17:26:20.585Z,4.72
2019-04-23T17:28:49.509Z,5.70
2019-04-23T17:31:34.521Z,5.87
2019-04-23T17:36:57.932Z,6.05
2019-04-23T17:39:07.836Z,6.65
2019-04-23T17:41:59.643Z,5.92
2019-04-23T17:44:24.258Z,5.20
2019-04-23T17:49:22.197Z,6.20
2019-04-23T17:51:57.510Z,5.67
2019-04-23T18:02:49.933Z,5.42
2019-04-23T18:07:43.674Z,5.20
2019-04-23T18:10:17.863Z,4.87
2019-04-23T18:15:05.020Z,5.00
2019-04-23T18:17:43.318Z,4.78
2019-04-23T18:20:16.285Z,5.67
2019-04-23T18:22:53.980Z,6.03
2019-04-23T18:25:26.142Z,6.78
2019-04-23T18:27:54.229Z,6.55
2019-04-23T18:31:10.338Z,6.42
2019-04-23T18:33:51.323Z,6.00
2019-04-23T18:35:47.574Z,6.50
2019-04-23T18:38:29.168Z,6.22
2019-04-23T18:41:02.606Z,6.47
2019-04-23T18:46:02.586Z,6.25
2019-04-23T18:48:44.163Z,6.08
2019-04-23T18:53:43.477Z,6.53
2019-04-23T19:01:16.015Z,6.53
2019-04-23T19:06:30.404Z,6.53
2019-04-23T19:11:59.406Z,7.58
2019-04-23T19:14:32.162Z,7.87
2019-04-23T19:17:30.415Z,6.75
2019-04-23T19:19:36.791Z,6.90
2019-04-23T19:22:19.381Z,6.55
2019-04-23T19:24:31.379Z,5.62
2019-04-23T19:32:14.384Z,5.75
2019-04-23T19:34:40.696Z,5.42
2019-04-23T19:39:46.968Z,6.57
2019-04-23T19:42:11.917Z,5.90
2019-04-23T19:44:47.491Z,6.30
2019-04-23T19:47:17.232Z,5.90
2019-04-23T19:49:50.235Z,5.80
2019-04-23T19:52:20.268Z,5.80
2019-04-23T19:54:55.032Z,6.15
2019-04-23T19:57:42.547Z,5.58
2019-04-23T20:02:38.641Z,5.63
2019-04-23T20:04:55.445Z,5.78
2019-04-23T20:07:43.133Z,5.57
2019-04-23T20:09:56.891Z,5.55
2019-04-23T20:12:40.845Z,6.10
2019-04-23T20:14:59.975Z,6.65
2019-04-23T20:20:08.783Z,6.25
2019-04-23T20:22:47.312Z,5.67
2019-04-23T20:25:38.165Z,6.78
2019-04-23T20:27:54.253Z,6.15
2019-04-23T20:33:27.916Z,6.55
2019-04-23T20:35:24.348Z,6.70
2019-04-23T20:43:14.997Z,8.20
2019-04-23T20:45:38.932Z,7.15
2019-04-23T20:48:09.395Z,8.50
2019-04-23T20:50:34.173Z,8.38
2019-04-23T20:53:00.016Z,8.38
2019-04-23T20:55:52.893Z,8.25
2019-04-23T20:58:03.156Z,8.63
2019-04-23T21:01:07.611Z,7.87
2019-04-23T21:03:30.869Z,8.40
2019-04-23T21:05:43.055Z,7.78
2019-04-23T21:08:30.698Z,7.35
2019-04-23T21:10:51.040Z,6.85
2019-04-23T21:13:43.054Z,7.57
2019-04-23T21:15:52.714Z,7.15
2019-04-23T21:18:32.984Z,6.92
2019-04-23T21:20:56.116Z,6.30
2019-04-23T21:23:37.439Z,5.58
2019-04-23T21:26:07.883Z,6.73
2019-04-23T21:28:40.049Z,6.28
2019-04-23T21:31:06.534Z,6.10
2019-04-23T21:33:43.844Z,5.90
2019-04-23T21:36:25.353Z,5.53
2019-04-23T21:39:15.363Z,5.45
2019-04-23T21:44:18.132Z,5.83
2019-04-23T21:46:54.172Z,5.97
2019-04-23T21:49:25.247Z,5.58
2019-04-23T21:51:53.815Z,5.75
2019-04-23T21:54:21.158Z,4.87
2019-04-23T21:59:17.567Z,4.85
2019-04-23T22:01:55.930Z,5.08
2019-04-23T22:12:05.191Z,5.75
2019-04-23T22:14:33.433Z,5.55
2019-04-23T22:17:09.608Z,6.22
2019-04-23T22:19:29.518Z,4.58
2019-04-23T22:22:22.165Z,5.50
2019-04-23T22:24:33.160Z,4.92
2019-04-23T22:27:06.524Z,5.22
2019-04-23T22:32:05.533Z,5.20
2019-04-23T22:39:45.729Z,5.10
2019-04-23T22:45:02.982Z,4.92
2019-04-23T22:47:13.591Z,5.10
2019-04-23T22:50:05.825Z,5.12
2019-04-23T22:52:23.321Z,5.15
2019-04-23T22:57:39.501Z,5.10
2019-04-23T23:00:11.224Z,5.65
2019-04-23T23:07:48.965Z,5.97
2019-04-23T23:10:12.834Z,6.60
2019-04-23T23:12:52.810Z,6.03
2019-04-23T23:15:15.935Z,6.80
2019-04-23T23:17:52.643Z,7.50
2019-04-23T23:22:52.284Z,8.05
2019-04-23T23:25:19.145Z,7.67
2019-04-23T23:27:54.270Z,7.30
2019-04-23T23:32:51.849Z,7.55
2019-04-23T23:35:24.543Z,7.67
2019-04-23T23:37:49.898Z,8.00
2019-04-23T23:40:20.318Z,7.15
2019-04-23T23:43:03.686Z,7.58
2019-04-23T23:48:10.103Z,7.90
2019-04-23T23:50:25.523Z,8.38
2019-04-23T23:53:58.545Z,7.65
2019-04-23T23:55:27.719Z,8.70
2019-04-23T23:58:06.769Z,7.67
